TAF Text Data
IDs:
Format:
Raw Decoded Include METAR

Data at: 0201 UTC 19 Oct 2021

KIAH 182320Z 1900/2006 14004KT P6SM FEW250
  FM191600 14008KT P6SM SCT035
  FM200300 VRB03KT P6SM SCT250